Time;durP1;ratioP1;P1;durP2;ratioP2;P2;SDS_P1;SDS_P2;PMS_P1;PMS_P2;Temp;Humidity;BMP_temperature;BMP_pressure;BME280_temperature;BME280_humidity;BME280_pressure;Samples;Min_cycle;Max_cycle;Signal;HPM_P1;HPM_P2
2021/03/26 00:01:22;;;;;;;47.97;33.72;;;;;;;;;;5114269;27;20229;-74
2021/03/26 00:03:50;;;;;;;51.83;34.10;;;;;;;;;;5100306;28;20207;-73
2021/03/26 00:06:18;;;;;;;45.42;32.65;;;;;;;;;;5093320;28;20263;-75
2021/03/26 00:08:44;;;;;;;52.13;34.40;;;;;;;;;;5105140;28;20248;-75
2021/03/26 00:11:11;;;;;;;50.35;33.88;;;;;;;;;;5099416;28;20248;-75
2021/03/26 00:13:37;;;;;;;49.25;32.00;;;;;;;;;;5093795;28;20179;-76
2021/03/26 00:16:04;;;;;;;50.40;33.90;;;;;;;;;;5103949;28;20187;-75
2021/03/26 00:18:30;;;;;;;47.00;34.00;;;;;;;;;;5117461;28;20175;-75
2021/03/26 00:20:57;;;;;;;45.40;32.13;;;;;;;;;;5092667;28;20186;-74
2021/03/26 00:23:23;;;;;;;45.60;33.10;;;;;;;;;;5096457;28;20535;-76
2021/03/26 00:25:49;;;;;;;47.10;34.05;;;;;;;;;;5096828;28;20678;-75
2021/03/26 00:28:15;;;;;;;51.10;34.75;;;;;;;;;;5096841;28;20688;-75
2021/03/26 00:30:41;;;;;;;45.85;32.55;;;;;;;;;;5096914;28;20180;-74
2021/03/26 00:33:09;;;;;;;50.55;31.25;;;;;;;;;;5106527;28;20182;-75
2021/03/26 00:35:35;;;;;;;48.00;31.98;;;;;;;;;;5117036;28;20239;-75
2021/03/26 00:38:01;;;;;;;47.67;32.47;;;;;;;;;;5118077;28;20159;-76
2021/03/26 00:40:27;;;;;;;46.50;31.15;;;;;;;;;;5117488;28;20171;-76
2021/03/26 00:42:53;;;;;;;42.47;30.80;;;;;;;;;;5117215;28;20488;-75
2021/03/26 00:45:22;;;;;;;46.42;31.00;;;;;;;;;;5096952;28;20199;-74
2021/03/26 00:47:48;;;;;;;44.95;29.92;;;;;;;;;;5096791;28;20175;-74
2021/03/26 00:50:17;;;;;;;38.90;28.27;;;;;;;;;;5096850;28;20172;-76
2021/03/26 00:52:43;;;;;;;41.03;28.63;;;;;;;;;;5096504;28;20172;-75
2021/03/26 00:55:09;;;;;;;41.13;28.30;;;;;;;;;;5095914;28;20556;-74
2021/03/26 00:57:35;;;;;;;43.05;28.50;;;;;;;;;;5096325;28;20175;-75
2021/03/26 01:00:01;;;;;;;40.28;28.27;;;;;;;;;;5095955;28;20182;-74
2021/03/26 01:02:27;;;;;;;39.55;28.95;;;;;;;;;;5096221;28;20524;-75
2021/03/26 01:04:53;;;;;;;37.93;27.47;;;;;;;;;;5099188;28;20219;-75
2021/03/26 01:07:19;;;;;;;47.20;30.48;;;;;;;;;;5115227;28;20714;-76
2021/03/26 01:09:45;;;;;;;40.95;29.00;;;;;;;;;;5113486;28;20234;-76
2021/03/26 01:12:11;;;;;;;40.20;28.98;;;;;;;;;;5106106;28;20163;-76
2021/03/26 01:14:37;;;;;;;45.83;29.75;;;;;;;;;;5098126;28;20255;-74
2021/03/26 01:17:05;;;;;;;43.15;29.17;;;;;;;;;;5101141;28;20178;-76
2021/03/26 01:19:31;;;;;;;46.15;29.70;;;;;;;;;;5095686;28;20535;-74
2021/03/26 01:21:57;;;;;;;44.40;30.40;;;;;;;;;;5095851;28;20186;-75
2021/03/26 01:24:23;;;;;;;45.23;30.60;;;;;;;;;;5098731;28;20190;-73
2021/03/26 01:26:49;;;;;;;42.10;29.17;;;;;;;;;;5116380;27;20749;-75
2021/03/26 01:29:15;;;;;;;42.42;29.67;;;;;;;;;;5109880;28;20195;-74
2021/03/26 01:31:41;;;;;;;42.30;28.88;;;;;;;;;;5095482;28;20175;-74
2021/03/26 01:34:08;;;;;;;44.05;28.98;;;;;;;;;;5095317;28;20178;-75
2021/03/26 01:36:34;;;;;;;40.13;28.25;;;;;;;;;;5095646;28;20183;-75
2021/03/26 01:39:00;;;;;;;39.53;28.02;;;;;;;;;;5095460;28;20179;-76
2021/03/26 01:41:26;;;;;;;41.05;28.02;;;;;;;;;;5095105;28;20176;-75
2021/03/26 01:43:52;;;;;;;41.83;27.23;;;;;;;;;;5095072;28;20190;-75
2021/03/26 01:46:19;;;;;;;37.78;26.52;;;;;;;;;;5095328;28;20465;-75
2021/03/26 01:48:50;;;;;;;37.38;27.88;;;;;;;;;;5094782;28;20187;-74
2021/03/26 01:51:21;;;;;;;40.63;28.25;;;;;;;;;;5092822;28;20171;-75
2021/03/26 01:53:47;;;;;;;37.35;27.52;;;;;;;;;;5099083;28;20178;-73
2021/03/26 01:56:14;;;;;;;41.97;26.42;;;;;;;;;;5115044;28;20638;-74
2021/03/26 01:58:40;;;;;;;36.10;26.75;;;;;;;;;;5112656;28;20536;-74
2021/03/26 02:01:17;;;;;;;35.33;26.83;;;;;;;;;;5097680;28;20652;-74
2021/03/26 02:03:47;;;;;;;35.70;25.52;;;;;;;;;;5100645;28;20182;-75
2021/03/26 02:06:13;;;;;;;39.08;25.92;;;;;;;;;;5100919;28;20211;-75
2021/03/26 02:08:39;;;;;;;35.27;25.20;;;;;;;;;;5101789;28;20194;-75
2021/03/26 02:11:21;;;;;;;36.72;24.95;;;;;;;;;;5106559;27;20453;-75
2021/03/26 02:13:48;;;;;;;36.75;25.67;;;;;;;;;;5104572;28;20181;-75
2021/03/26 02:16:14;;;;;;;35.85;24.38;;;;;;;;;;5090616;28;20248;-73
2021/03/26 02:18:42;;;;;;;33.65;23.73;;;;;;;;;;5099708;28;20171;-75
2021/03/26 02:21:12;;;;;;;33.60;23.65;;;;;;;;;;5094029;28;20175;-74
2021/03/26 02:23:39;;;;;;;37.30;24.00;;;;;;;;;;5094091;28;20232;-76
2021/03/26 02:26:13;;;;;;;33.60;24.55;;;;;;;;;;5098641;28;20205;-76
2021/03/26 02:28:39;;;;;;;33.25;23.85;;;;;;;;;;5112589;28;20331;-77
2021/03/26 02:31:05;;;;;;;35.63;24.83;;;;;;;;;;5093892;28;20176;-74
2021/03/26 02:33:31;;;;;;;41.53;25.88;;;;;;;;;;5093973;28;20179;-75
2021/03/26 02:36:17;;;;;;;41.10;25.67;;;;;;;;;;5098726;28;20190;-74
2021/03/26 02:38:47;;;;;;;39.45;25.55;;;;;;;;;;5114393;28;20253;-75
2021/03/26 02:41:13;;;;;;;37.88;25.65;;;;;;;;;;5092838;28;20179;-73
2021/03/26 02:43:42;;;;;;;37.03;24.90;;;;;;;;;;5093769;28;20572;-76
2021/03/26 02:46:17;;;;;;;39.35;25.63;;;;;;;;;;5099499;28;20801;-75
2021/03/26 02:48:50;;;;;;;37.00;25.85;;;;;;;;;;5097422;28;20197;-75
2021/03/26 02:51:19;;;;;;;39.35;25.45;;;;;;;;;;5104048;28;20183;-75
2021/03/26 02:53:44;;;;;;;39.75;26.00;;;;;;;;;;5083980;28;20171;-74
2021/03/26 02:56:17;;;;;;;39.40;26.37;;;;;;;;;;5104261;28;20567;-75
2021/03/26 02:58:47;;;;;;;42.45;27.13;;;;;;;;;;5114399;28;20512;-74
2021/03/26 03:01:17;;;;;;;45.40;28.75;;;;;;;;;;5104593;28;20183;-75
2021/03/26 03:03:45;;;;;;;40.00;27.92;;;;;;;;;;5080276;28;20254;-75
2021/03/26 03:06:15;;;;;;;43.38;28.20;;;;;;;;;;5093819;28;20212;-73
2021/03/26 03:08:42;;;;;;;43.55;28.80;;;;;;;;;;5104378;28;20191;-75
2021/03/26 03:11:15;;;;;;;43.67;28.65;;;;;;;;;;5093586;28;20175;-74
2021/03/26 03:13:41;;;;;;;49.75;30.17;;;;;;;;;;5093118;28;20194;-75
2021/03/26 03:16:30;;;;;;;47.77;30.23;;;;;;;;;;5096622;28;20672;-74
2021/03/26 03:19:12;;;;;;;48.40;30.83;;;;;;;;;;5103322;28;20425;-74
2021/03/26 03:21:50;;;;;;;51.13;32.72;;;;;;;;;;5084755;28;20167;-73
2021/03/26 03:24:19;;;;;;;54.80;32.50;;;;;;;;;;5092852;28;20227;-76
2021/03/26 03:26:45;;;;;;;46.28;31.25;;;;;;;;;;5093152;28;20179;-73
2021/03/26 03:29:11;;;;;;;51.57;32.67;;;;;;;;;;5093374;28;20676;-74
2021/03/26 03:31:45;;;;;;;56.90;33.80;;;;;;;;;;5094970;28;20418;-74
2021/03/26 03:34:21;;;;;;;53.08;31.83;;;;;;;;;;5096625;28;20173;-73
2021/03/26 03:37:02;;;;;;;55.08;34.17;;;;;;;;;;5101720;28;20273;-74
2021/03/26 03:39:29;;;;;;;50.03;32.10;;;;;;;;;;5100374;28;20242;-74
2021/03/26 03:41:59;;;;;;;50.90;32.53;;;;;;;;;;5098909;28;20179;-75
2021/03/26 03:44:34;;;;;;;50.22;30.60;;;;;;;;;;5092776;28;20213;-74
2021/03/26 03:47:10;;;;;;;50.08;32.03;;;;;;;;;;5089063;28;20214;-76
2021/03/26 03:49:50;;;;;;;54.53;32.72;;;;;;;;;;5093935;28;20520;-74
2021/03/26 03:52:23;;;;;;;52.08;33.53;;;;;;;;;;5093747;28;20269;-76
2021/03/26 03:55:01;;;;;;;50.45;30.77;;;;;;;;;;5093182;28;20202;-75
2021/03/26 03:57:30;;;;;;;53.13;33.75;;;;;;;;;;5104768;28;20199;-75
2021/03/26 04:00:05;;;;;;;49.75;32.60;;;;;;;;;;5095719;28;20171;-75
2021/03/26 04:02:34;;;;;;;51.15;32.35;;;;;;;;;;5113865;28;20178;-75
2021/03/26 04:05:09;;;;;;;53.45;32.80;;;;;;;;;;5104296;28;20218;-75
2021/03/26 04:07:38;;;;;;;52.60;32.97;;;;;;;;;;5109580;28;20170;-75
2021/03/26 04:10:08;;;;;;;55.05;33.03;;;;;;;;;;5104672;28;20195;-74
2021/03/26 04:12:38;;;;;;;56.55;35.58;;;;;;;;;;5097014;28;20171;-73
2021/03/26 04:15:04;;;;;;;54.90;35.38;;;;;;;;;;5092348;28;20195;-74
2021/03/26 04:17:37;;;;;;;52.50;32.17;;;;;;;;;;5093264;28;20172;-75
2021/03/26 04:20:06;;;;;;;58.50;33.83;;;;;;;;;;5092603;28;20433;-76
2021/03/26 04:22:37;;;;;;;52.28;33.60;;;;;;;;;;5092993;28;20179;-73
2021/03/26 04:25:06;;;;;;;51.17;32.75;;;;;;;;;;5102994;28;20210;-73
2021/03/26 04:27:43;;;;;;;48.78;31.25;;;;;;;;;;5093194;28;20205;-75
2021/03/26 04:30:09;;;;;;;52.88;32.53;;;;;;;;;;5092530;28;20238;-76
2021/03/26 04:32:35;;;;;;;51.00;32.30;;;;;;;;;;5103273;28;20182;-72
2021/03/26 04:35:01;;;;;;;46.65;30.25;;;;;;;;;;5102456;28;20217;-74
2021/03/26 04:37:46;;;;;;;49.47;30.05;;;;;;;;;;5104616;28;20659;-75
2021/03/26 04:40:24;;;;;;;45.17;29.83;;;;;;;;;;5085369;28;20184;-75
2021/03/26 04:42:56;;;;;;;45.90;29.90;;;;;;;;;;5114043;28;20223;-74
2021/03/26 04:45:29;;;;;;;48.47;30.60;;;;;;;;;;5105076;28;20203;-75
2021/03/26 04:47:58;;;;;;;45.58;30.20;;;;;;;;;;5107435;28;20174;-74
2021/03/26 04:50:30;;;;;;;45.00;31.40;;;;;;;;;;5103027;28;20266;-75
2021/03/26 04:53:01;;;;;;;45.10;30.35;;;;;;;;;;5089924;28;20194;-75
2021/03/26 04:55:31;;;;;;;48.47;32.00;;;;;;;;;;5094509;28;20540;-75
2021/03/26 04:57:58;;;;;;;52.05;32.00;;;;;;;;;;5102207;28;20262;-75
2021/03/26 05:00:36;;;;;;;40.90;25.23;;;;;;;;;;5096475;28;20183;-75
2021/03/26 05:03:02;;;;;;;47.15;29.98;;;;;;;;;;5095585;28;20262;-74
2021/03/26 05:05:28;;;;;;;50.43;33.30;;;;;;;;;;5099788;28;20582;-75
2021/03/26 05:07:57;;;;;;;48.05;32.28;;;;;;;;;;5114582;28;20932;-74
2021/03/26 05:10:26;;;;;;;50.97;33.55;;;;;;;;;;5105061;28;20175;-74
2021/03/26 05:12:55;;;;;;;50.42;33.63;;;;;;;;;;5095273;28;20178;-75
2021/03/26 05:15:21;;;;;;;46.50;30.35;;;;;;;;;;5095560;28;20769;-74
2021/03/26 05:17:47;;;;;;;58.55;39.00;;;;;;;;;;5095479;28;20172;-75
2021/03/26 05:20:33;;;;;;;50.42;33.80;;;;;;;;;;5101634;28;20183;-78
2021/03/26 05:23:02;;;;;;;49.13;32.38;;;;;;;;;;5102524;28;20198;-75
2021/03/26 05:25:28;;;;;;;49.75;32.85;;;;;;;;;;5105866;28;20202;-74
2021/03/26 05:27:55;;;;;;;46.05;31.25;;;;;;;;;;5110783;28;20174;-74
2021/03/26 05:30:33;;;;;;;46.47;32.97;;;;;;;;;;5107553;28;20214;-74
2021/03/26 05:33:11;;;;;;;51.20;32.13;;;;;;;;;;5112275;28;20261;-75
2021/03/26 05:35:40;;;;;;;52.05;34.05;;;;;;;;;;5104199;28;20270;-75
2021/03/26 05:38:11;;;;;;;52.42;34.83;;;;;;;;;;5108299;28;20174;-75
2021/03/26 05:40:37;;;;;;;50.08;33.75;;;;;;;;;;5104456;28;20182;-74
2021/03/26 05:43:23;;;;;;;48.17;31.93;;;;;;;;;;5100601;28;20178;-76
2021/03/26 05:45:56;;;;;;;47.33;31.75;;;;;;;;;;5099143;28;20419;-76
2021/03/26 05:48:51;;;;;;;48.35;31.38;;;;;;;;;;5104263;28;20195;-75
2021/03/26 05:51:33;;;;;;;51.47;32.17;;;;;;;;;;5055957;28;20227;-74
2021/03/26 05:54:14;;;;;;;46.15;31.35;;;;;;;;;;5081987;28;20171;-75
2021/03/26 05:57:03;;;;;;;50.40;33.80;;;;;;;;;;5095973;28;20193;-74
2021/03/26 05:59:34;;;;;;;56.03;34.65;;;;;;;;;;5088591;28;20616;-75
2021/03/26 06:02:06;;;;;;;49.92;32.50;;;;;;;;;;5089656;28;20332;-75
2021/03/26 06:04:45;;;;;;;54.83;34.40;;;;;;;;;;5094086;28;20278;-75
2021/03/26 06:07:29;;;;;;;54.65;32.83;;;;;;;;;;5094791;28;20224;-75
2021/03/26 06:10:02;;;;;;;51.42;34.70;;;;;;;;;;5094796;28;20210;-76
2021/03/26 06:12:40;;;;;;;55.20;35.28;;;;;;;;;;5087948;28;20174;-76
2021/03/26 06:15:25;;;;;;;49.53;32.10;;;;;;;;;;5088938;28;20584;-76
2021/03/26 06:18:10;;;;;;;53.08;35.08;;;;;;;;;;5093992;28;20171;-74
2021/03/26 06:20:54;;;;;;;50.05;34.70;;;;;;;;;;5094644;28;20211;-74
2021/03/26 06:23:20;;;;;;;52.25;32.80;;;;;;;;;;5100322;28;20551;-75
2021/03/26 06:25:52;;;;;;;54.00;36.30;;;;;;;;;;5093880;28;20202;-75
2021/03/26 06:28:37;;;;;;;51.50;34.97;;;;;;;;;;5094567;28;20388;-74
2021/03/26 06:31:06;;;;;;;50.63;32.70;;;;;;;;;;5092996;28;20203;-74
2021/03/26 06:33:35;;;;;;;58.28;38.08;;;;;;;;;;5093900;28;20578;-75
2021/03/26 06:36:05;;;;;;;52.20;36.67;;;;;;;;;;5093224;28;20202;-74
2021/03/26 06:38:31;;;;;;;57.10;36.80;;;;;;;;;;5093885;28;20216;-74
2021/03/26 06:40:57;;;;;;;51.25;33.38;;;;;;;;;;5093955;28;20171;-75
2021/03/26 06:43:32;;;;;;;48.47;35.97;;;;;;;;;;5107958;28;20709;-75
2021/03/26 06:46:08;;;;;;;55.95;38.17;;;;;;;;;;5099940;28;20448;-76
2021/03/26 06:48:50;;;;;;;54.83;36.75;;;;;;;;;;5093754;28;20282;-73
2021/03/26 06:51:35;;;;;;;54.45;35.75;;;;;;;;;;5093743;28;20172;-74
2021/03/26 06:54:19;;;;;;;51.53;37.08;;;;;;;;;;5081415;28;20254;-76
2021/03/26 06:56:55;;;;;;;48.10;34.33;;;;;;;;;;5085074;28;20180;-74
2021/03/26 06:59:40;;;;;;;53.05;36.70;;;;;;;;;;5091826;28;20182;-75
2021/03/26 07:02:27;;;;;;;49.17;34.63;;;;;;;;;;5074935;28;20179;-74
2021/03/26 07:05:12;;;;;;;54.78;34.70;;;;;;;;;;5089792;28;20221;-74
2021/03/26 07:07:44;;;;;;;48.00;34.25;;;;;;;;;;5089688;28;20179;-75
2021/03/26 07:10:20;;;;;;;47.35;35.75;;;;;;;;;;5084300;28;20211;-75
2021/03/26 07:12:55;;;;;;;53.00;37.67;;;;;;;;;;5071922;28;20315;-75
2021/03/26 07:15:23;;;;;;;48.28;34.55;;;;;;;;;;5089484;28;20551;-75
2021/03/26 07:17:55;;;;;;;49.28;36.67;;;;;;;;;;5090102;28;20183;-75
2021/03/26 07:20:27;;;;;;;50.30;36.40;;;;;;;;;;5100971;28;20178;-75
2021/03/26 07:23:12;;;;;;;49.25;35.60;;;;;;;;;;5107286;28;20643;-74
2021/03/26 07:26:01;;;;;;;46.47;35.80;;;;;;;;;;5089561;28;20838;-76
2021/03/26 07:28:45;;;;;;;49.15;35.85;;;;;;;;;;5089282;28;20198;-73
2021/03/26 07:31:11;;;;;;;53.17;37.10;;;;;;;;;;5088403;28;20517;-74
2021/03/26 07:33:58;;;;;;;51.58;37.15;;;;;;;;;;5102435;28;20179;-75
2021/03/26 07:36:42;;;;;;;53.10;36.97;;;;;;;;;;5088253;28;20226;-75
2021/03/26 07:39:27;;;;;;;53.42;37.75;;;;;;;;;;5078001;28;20210;-75
2021/03/26 07:42:08;;;;;;;51.03;36.60;;;;;;;;;;5088566;28;20183;-75
2021/03/26 07:44:34;;;;;;;50.90;36.50;;;;;;;;;;5089148;28;20564;-75
2021/03/26 07:47:23;;;;;;;50.90;36.70;;;;;;;;;;5089324;28;20191;-75
2021/03/26 07:50:08;;;;;;;50.67;37.17;;;;;;;;;;5079356;28;20477;-75
2021/03/26 07:52:41;;;;;;;55.35;38.33;;;;;;;;;;5096039;28;20182;-75
2021/03/26 07:55:23;;;;;;;49.40;36.75;;;;;;;;;;5088765;28;20256;-76
2021/03/26 07:57:49;;;;;;;50.20;36.60;;;;;;;;;;5089482;28;20289;-75
2021/03/26 08:00:23;;;;;;;54.20;41.03;;;;;;;;;;5097795;28;20179;-75
2021/03/26 08:02:55;;;;;;;53.40;37.95;;;;;;;;;;5109193;28;20773;-75
2021/03/26 08:05:25;;;;;;;52.38;38.25;;;;;;;;;;5090361;28;20601;-74
2021/03/26 08:07:51;;;;;;;49.53;37.17;;;;;;;;;;5090700;28;20175;-75
2021/03/26 08:10:28;;;;;;;53.80;38.97;;;;;;;;;;5103932;28;20987;-74
2021/03/26 08:12:57;;;;;;;46.55;36.65;;;;;;;;;;5108972;28;20425;-75
2021/03/26 08:15:38;;;;;;;49.88;36.80;;;;;;;;;;5093175;28;20203;-73
2021/03/26 08:18:23;;;;;;;46.05;36.22;;;;;;;;;;5092781;28;20206;-74
2021/03/26 08:21:01;;;;;;;43.80;33.20;;;;;;;;;;5092852;28;20183;-75
2021/03/26 08:23:37;;;;;;;42.10;33.33;;;;;;;;;;5092971;28;20184;-75
2021/03/26 08:26:03;;;;;;;44.33;33.10;;;;;;;;;;5092962;28;20202;-75
2021/03/26 08:28:46;;;;;;;38.42;30.98;;;;;;;;;;5091668;28;20199;-75
2021/03/26 08:31:12;;;;;;;38.72;30.65;;;;;;;;;;5092114;28;20698;-75
2021/03/26 08:33:45;;;;;;;36.17;30.20;;;;;;;;;;5113202;28;20183;-75
2021/03/26 08:36:37;;;;;;;37.58;30.33;;;;;;;;;;5113095;28;20436;-74
2021/03/26 08:39:12;;;;;;;30.42;25.83;;;;;;;;;;5111101;28;20277;-74
2021/03/26 08:41:40;;;;;;;27.65;23.35;;;;;;;;;;5113125;28;20182;-75
2021/03/26 08:44:07;;;;;;;28.23;21.92;;;;;;;;;;5112604;28;20232;-75
2021/03/26 08:46:43;;;;;;;26.95;21.52;;;;;;;;;;5111646;28;20273;-75
2021/03/26 08:49:24;;;;;;;24.70;20.48;;;;;;;;;;5101874;28;20555;-75
2021/03/26 08:52:02;;;;;;;27.45;19.08;;;;;;;;;;5098621;28;20228;-74
2021/03/26 08:54:36;;;;;;;22.20;19.42;;;;;;;;;;5112385;28;21000;-75
2021/03/26 08:57:34;;;;;;;23.00;19.70;;;;;;;;;;5112842;28;20253;-75
2021/03/26 09:00:06;;;;;;;30.60;22.67;;;;;;;;;;5089027;27;20194;-75
2021/03/26 09:02:57;;;;;;;24.83;20.17;;;;;;;;;;5112834;28;20625;-75
2021/03/26 09:05:33;;;;;;;25.63;22.55;;;;;;;;;;5101625;28;20294;-75
2021/03/26 09:08:08;;;;;;;27.25;22.85;;;;;;;;;;5092198;28;20179;-76
2021/03/26 09:10:40;;;;;;;25.85;21.85;;;;;;;;;;5092003;28;20240;-76
2021/03/26 09:13:06;;;;;;;27.73;22.60;;;;;;;;;;5099897;28;21064;-76
2021/03/26 09:15:33;;;;;;;28.88;22.65;;;;;;;;;;5090745;28;20551;-74
2021/03/26 09:18:10;;;;;;;26.65;21.15;;;;;;;;;;5085653;28;20172;-75
2021/03/26 09:20:44;;;;;;;22.50;18.50;;;;;;;;;;5106358;28;20178;-76
2021/03/26 09:23:10;;;;;;;21.08;17.05;;;;;;;;;;5096014;28;20586;-74
2021/03/26 09:25:41;;;;;;;21.40;19.10;;;;;;;;;;5105130;28;20207;-75
2021/03/26 09:28:14;;;;;;;21.60;15.68;;;;;;;;;;5105129;28;20835;-74
2021/03/26 09:30:46;;;;;;;19.17;15.48;;;;;;;;;;5093458;28;20540;-75
2021/03/26 09:33:15;;;;;;;19.08;16.05;;;;;;;;;;5105888;28;20224;-76
2021/03/26 09:35:47;;;;;;;17.90;14.67;;;;;;;;;;5093042;28;20195;-75
2021/03/26 09:38:14;;;;;;;17.77;15.90;;;;;;;;;;5107208;28;20412;-75
2021/03/26 09:40:47;;;;;;;21.30;15.83;;;;;;;;;;5107186;28;20504;-76
2021/03/26 09:43:23;;;;;;;18.03;16.10;;;;;;;;;;5090905;28;20403;-74
2021/03/26 09:45:49;;;;;;;17.80;16.00;;;;;;;;;;5090648;28;20447;-75
2021/03/26 09:48:47;;;;;;;20.60;18.43;;;;;;;;;;5092041;28;20407;-75
2021/03/26 09:51:18;;;;;;;19.40;16.47;;;;;;;;;;5090351;28;20540;-74
2021/03/26 09:53:44;;;;;;;16.20;14.70;;;;;;;;;;5111588;28;20409;-75
2021/03/26 09:56:16;;;;;;;16.90;15.20;;;;;;;;;;5096749;28;20473;-74
2021/03/26 09:59:01;;;;;;;17.03;15.20;;;;;;;;;;5095032;28;21056;-74
2021/03/26 10:01:46;;;;;;;16.67;15.07;;;;;;;;;;5111511;28;20417;-74
2021/03/26 10:04:15;;;;;;;15.53;14.03;;;;;;;;;;5095260;28;20457;-74
2021/03/26 10:06:46;;;;;;;16.47;14.80;;;;;;;;;;5090890;28;20801;-74
2021/03/26 10:09:26;;;;;;;18.27;16.37;;;;;;;;;;5091340;28;20508;-76
2021/03/26 10:11:55;;;;;;;16.57;14.83;;;;;;;;;;5090652;28;20422;-74
2021/03/26 10:14:23;;;;;;;15.73;14.30;;;;;;;;;;5094055;28;20490;-76
2021/03/26 10:16:58;;;;;;;16.07;14.17;;;;;;;;;;5090208;28;20508;-75
2021/03/26 10:19:42;;;;;;;16.23;14.53;;;;;;;;;;5090751;28;20433;-75
2021/03/26 10:22:22;;;;;;;17.40;15.70;;;;;;;;;;5093214;28;20464;-75
2021/03/26 10:24:58;;;;;;;17.93;16.13;;;;;;;;;;5103448;28;20460;-75
2021/03/26 10:27:31;;;;;;;19.70;17.70;;;;;;;;;;5089549;28;20429;-77
2021/03/26 10:30:12;;;;;;;17.40;15.80;;;;;;;;;;5090481;28;20475;-75
2021/03/26 10:32:38;;;;;;;17.37;15.77;;;;;;;;;;5098723;28;20483;-76
2021/03/26 10:35:30;;;;;;;17.60;16.00;;;;;;;;;;5101729;28;20456;-74
2021/03/26 10:38:02;;;;;;;16.97;15.43;;;;;;;;;;5088406;28;20425;-73
2021/03/26 10:40:36;;;;;;;16.00;14.50;;;;;;;;;;5090013;28;20480;-74
2021/03/26 10:43:02;;;;;;;14.30;13.00;;;;;;;;;;5090163;28;20565;-76
2021/03/26 10:45:42;;;;;;;13.43;12.37;;;;;;;;;;5090200;28;20441;-75
2021/03/26 10:48:18;;;;;;;13.60;11.93;;;;;;;;;;5094866;28;20978;-74
2021/03/26 10:51:02;;;;;;;13.93;12.77;;;;;;;;;;5091112;28;21235;-75
2021/03/26 10:53:29;;;;;;;14.20;12.90;;;;;;;;;;5089919;28;20743;-74
2021/03/26 10:55:58;;;;;;;13.60;12.20;;;;;;;;;;5107856;28;20924;-74
2021/03/26 10:58:33;;;;;;;13.57;12.20;;;;;;;;;;5090009;28;20433;-74
2021/03/26 11:01:12;;;;;;;13.70;12.27;;;;;;;;;;5089735;28;20407;-74
2021/03/26 11:03:41;;;;;;;12.53;11.30;;;;;;;;;;5100555;28;20773;-76
2021/03/26 11:06:18;;;;;;;12.97;11.77;;;;;;;;;;5091779;28;20453;-75
2021/03/26 11:08:49;;;;;;;13.50;12.10;;;;;;;;;;5089852;28;20551;-77
2021/03/26 11:11:22;;;;;;;12.67;11.37;;;;;;;;;;5096725;28;20440;-75
2021/03/26 11:14:09;;;;;;;12.63;11.40;;;;;;;;;;5096421;28;20417;-75
2021/03/26 11:16:48;;;;;;;15.33;12.30;;;;;;;;;;5092438;28;20448;-75
2021/03/26 11:19:26;;;;;;;12.40;11.10;;;;;;;;;;5104550;28;20415;-75
2021/03/26 11:21:57;;;;;;;14.57;12.10;;;;;;;;;;5101210;28;20511;-75
2021/03/26 11:24:24;;;;;;;12.37;11.10;;;;;;;;;;5089694;28;20447;-75
2021/03/26 11:27:04;;;;;;;11.00;9.90;;;;;;;;;;5090054;28;20415;-75
2021/03/26 11:29:38;;;;;;;13.03;11.60;;;;;;;;;;5094335;28;20469;-75
2021/03/26 11:32:09;;;;;;;11.13;10.03;;;;;;;;;;5106418;28;20436;-75
2021/03/26 11:34:38;;;;;;;10.13;9.07;;;;;;;;;;5075875;28;21341;-76
2021/03/26 11:37:11;;;;;;;11.43;10.23;;;;;;;;;;5090154;28;20775;-77
2021/03/26 11:39:42;;;;;;;10.60;9.30;;;;;;;;;;5099842;28;20767;-75
2021/03/26 11:42:08;;;;;;;11.43;10.30;;;;;;;;;;5091822;28;20782;-77
2021/03/26 11:44:45;;;;;;;10.00;9.00;;;;;;;;;;5091599;28;20452;-74
2021/03/26 11:47:34;;;;;;;9.53;8.37;;;;;;;;;;5089705;28;20441;-74
2021/03/26 11:50:24;;;;;;;8.57;7.70;;;;;;;;;;5079819;28;20508;-73
2021/03/26 11:52:59;;;;;;;8.70;7.73;;;;;;;;;;5091417;28;20495;-73
2021/03/26 11:55:29;;;;;;;10.13;8.73;;;;;;;;;;5089173;28;20465;-74
2021/03/26 11:58:10;;;;;;;10.37;8.83;;;;;;;;;;5101707;28;20458;-74
2021/03/26 12:00:41;;;;;;;11.30;9.53;;;;;;;;;;5108124;28;20989;-76
2021/03/26 12:03:13;;;;;;;10.80;9.33;;;;;;;;;;5092138;28;20472;-71
2021/03/26 12:05:57;;;;;;;11.07;10.00;;;;;;;;;;5078295;28;20452;-74
2021/03/26 12:08:27;;;;;;;11.63;9.97;;;;;;;;;;5089505;28;20420;-73
2021/03/26 12:10:59;;;;;;;11.23;10.10;;;;;;;;;;5089568;28;20499;-72
2021/03/26 12:13:37;;;;;;;10.40;9.30;;;;;;;;;;5070464;28;20768;-71
2021/03/26 12:16:13;;;;;;;8.93;8.13;;;;;;;;;;5085213;28;20543;-70
2021/03/26 12:18:54;;;;;;;8.80;8.00;;;;;;;;;;5099838;28;20405;-74
2021/03/26 12:21:26;;;;;;;10.27;9.20;;;;;;;;;;5089583;28;20424;-74
2021/03/26 12:24:01;;;;;;;10.17;9.27;;;;;;;;;;5089271;28;20497;-74
2021/03/26 12:26:32;;;;;;;10.87;9.87;;;;;;;;;;5096688;28;20433;-74
2021/03/26 12:29:16;;;;;;;10.77;9.73;;;;;;;;;;5105778;28;20456;-72
2021/03/26 12:31:51;;;;;;;9.80;8.80;;;;;;;;;;5081496;28;20484;-75
2021/03/26 12:34:23;;;;;;;9.90;8.93;;;;;;;;;;5091386;28;20439;-73
2021/03/26 12:36:58;;;;;;;9.87;9.00;;;;;;;;;;5085878;28;20418;-74
2021/03/26 12:39:35;;;;;;;9.43;8.60;;;;;;;;;;5089416;28;20405;-73
2021/03/26 12:42:13;;;;;;;9.90;9.10;;;;;;;;;;5089290;28;20416;-72
2021/03/26 12:44:39;;;;;;;9.63;8.83;;;;;;;;;;5088692;28;20433;-74
2021/03/26 12:47:28;;;;;;;10.37;9.47;;;;;;;;;;5091675;28;20769;-74
2021/03/26 12:49:58;;;;;;;10.97;10.00;;;;;;;;;;5070085;28;20477;-73
2021/03/26 12:52:33;;;;;;;10.60;9.70;;;;;;;;;;5075436;28;20875;-73
2021/03/26 12:55:19;;;;;;;11.57;10.67;;;;;;;;;;5090048;28;20424;-72
2021/03/26 12:57:48;;;;;;;12.87;11.77;;;;;;;;;;5091830;28;20510;-74
2021/03/26 13:00:18;;;;;;;10.97;10.13;;;;;;;;;;5092238;28;20448;-74
2021/03/26 13:02:55;;;;;;;12.27;11.17;;;;;;;;;;5092099;28;20415;-72
2021/03/26 13:05:30;;;;;;;14.37;13.17;;;;;;;;;;5078837;28;20455;-75
2021/03/26 13:08:12;;;;;;;14.13;13.10;;;;;;;;;;5091992;28;20417;-73
2021/03/26 13:10:47;;;;;;;13.93;12.83;;;;;;;;;;5091534;28;20492;-73
2021/03/26 13:13:18;;;;;;;15.50;14.10;;;;;;;;;;5091819;28;20452;-74
2021/03/26 13:16:04;;;;;;;15.53;14.30;;;;;;;;;;5085815;28;20833;-74
2021/03/26 13:18:30;;;;;;;16.10;14.60;;;;;;;;;;5072548;28;20421;-74
2021/03/26 13:20:58;;;;;;;17.37;15.90;;;;;;;;;;5093414;28;20452;-74
2021/03/26 13:23:44;;;;;;;18.30;16.67;;;;;;;;;;5112127;28;20420;-73
2021/03/26 13:26:16;;;;;;;18.60;17.00;;;;;;;;;;5100382;28;20436;-72
2021/03/26 13:29:01;;;;;;;17.77;16.10;;;;;;;;;;5110332;28;20516;-73
2021/03/26 13:31:33;;;;;;;18.53;16.87;;;;;;;;;;5098280;28;20428;-74
2021/03/26 13:34:17;;;;;;;20.57;18.53;;;;;;;;;;5112020;28;20434;-74
2021/03/26 13:36:53;;;;;;;21.27;19.27;;;;;;;;;;5091424;28;20425;-72
2021/03/26 13:39:22;;;;;;;19.83;18.03;;;;;;;;;;5091564;28;20439;-74
2021/03/26 13:41:56;;;;;;;18.77;16.93;;;;;;;;;;5091260;28;20421;-73
2021/03/26 13:44:28;;;;;;;21.80;18.40;;;;;;;;;;5091209;28;21164;-73
2021/03/26 13:47:01;;;;;;;18.93;17.13;;;;;;;;;;5092894;28;20461;-73
2021/03/26 13:49:28;;;;;;;19.93;17.93;;;;;;;;;;5109381;28;20557;-73
2021/03/26 13:52:08;;;;;;;20.10;18.10;;;;;;;;;;5090683;28;20457;-72
2021/03/26 13:54:37;;;;;;;19.87;17.77;;;;;;;;;;5090979;28;20460;-73
2021/03/26 13:57:23;;;;;;;18.30;16.50;;;;;;;;;;5095865;28;20428;-73
2021/03/26 13:59:58;;;;;;;18.80;16.80;;;;;;;;;;5111375;28;20415;-72
2021/03/26 14:02:30;;;;;;;19.20;17.20;;;;;;;;;;5092913;28;20463;-72
2021/03/26 14:05:02;;;;;;;19.57;17.40;;;;;;;;;;5104235;28;20484;-73
2021/03/26 14:07:34;;;;;;;19.23;17.23;;;;;;;;;;5090177;28;20428;-72
2021/03/26 14:10:00;;;;;;;19.67;17.67;;;;;;;;;;5088824;28;20458;-71
2021/03/26 14:12:29;;;;;;;18.17;16.27;;;;;;;;;;5093649;28;20423;-73
2021/03/26 14:15:02;;;;;;;20.50;18.10;;;;;;;;;;5095732;28;20436;-73
2021/03/26 14:17:28;;;;;;;18.37;16.53;;;;;;;;;;5097873;28;20420;-73
2021/03/26 14:19:58;;;;;;;18.93;16.90;;;;;;;;;;5104399;28;20779;-73
2021/03/26 14:22:24;;;;;;;18.13;16.33;;;;;;;;;;5090656;28;20439;-74
2021/03/26 14:24:53;;;;;;;16.57;14.77;;;;;;;;;;5090247;28;20433;-73
2021/03/26 14:27:25;;;;;;;17.90;16.00;;;;;;;;;;5105156;28;20420;-74
2021/03/26 14:30:00;;;;;;;17.90;16.00;;;;;;;;;;5095798;28;20469;-74
2021/03/26 14:32:34;;;;;;;16.83;15.17;;;;;;;;;;5090788;28;20417;-74
2021/03/26 14:35:03;;;;;;;16.77;14.97;;;;;;;;;;5090327;28;20439;-73
2021/03/26 14:37:34;;;;;;;17.53;14.80;;;;;;;;;;5090106;28;20425;-73
2021/03/26 14:40:09;;;;;;;16.27;14.57;;;;;;;;;;5089330;28;20790;-71
2021/03/26 14:42:36;;;;;;;14.40;13.10;;;;;;;;;;5089714;28;20520;-72
2021/03/26 14:45:07;;;;;;;15.13;13.40;;;;;;;;;;5090233;28;20468;-74
2021/03/26 14:47:38;;;;;;;14.13;12.87;;;;;;;;;;5090456;28;20512;-73
2021/03/26 14:50:04;;;;;;;14.77;13.27;;;;;;;;;;5084228;28;20825;-73
2021/03/26 14:52:36;;;;;;;14.40;13.00;;;;;;;;;;5090372;28;20429;-73